sensor_id;sensor_type;location;lat;lon;timestamp;temperature;humidity
11666;DHT22;5889;51.350;6.708;2024-02-16T00:00:06;13.20;99.90
11666;DHT22;5889;51.350;6.708;2024-02-16T00:02:33;13.20;99.90
11666;DHT22;5889;51.350;6.708;2024-02-16T00:05:00;13.20;99.90
11666;DHT22;5889;51.350;6.708;2024-02-16T00:07:27;13.20;99.90
11666;DHT22;5889;51.350;6.708;2024-02-16T00:09:54;13.30;99.90
11666;DHT22;5889;51.350;6.708;2024-02-16T00:12:20;13.20;99.90
11666;DHT22;5889;51.350;6.708;2024-02-16T00:14:47;13.30;99.90
11666;DHT22;5889;51.350;6.708;2024-02-16T00:17:16;13.30;99.90
11666;DHT22;5889;51.350;6.708;2024-02-16T00:19:43;13.30;99.90
11666;DHT22;5889;51.350;6.708;2024-02-16T00:22:10;13.30;99.90
11666;DHT22;5889;51.350;6.708;2024-02-16T00:24:38;13.30;99.90
11666;DHT22;5889;51.350;6.708;2024-02-16T00:27:05;13.30;99.90
11666;DHT22;5889;51.350;6.708;2024-02-16T00:29:32;13.30;99.90
11666;DHT22;5889;51.350;6.708;2024-02-16T00:31:59;13.30;99.90
11666;DHT22;5889;51.350;6.708;2024-02-16T00:34:27;13.30;99.90
11666;DHT22;5889;51.350;6.708;2024-02-16T00:36:54;13.30;99.90
11666;DHT22;5889;51.350;6.708;2024-02-16T00:39:21;13.30;99.90
11666;DHT22;5889;51.350;6.708;2024-02-16T00:41:48;13.30;99.90
11666;DHT22;5889;51.350;6.708;2024-02-16T00:44:15;13.30;99.90
11666;DHT22;5889;51.350;6.708;2024-02-16T00:46:43;13.30;99.90
11666;DHT22;5889;51.350;6.708;2024-02-16T00:49:10;13.30;99.90
11666;DHT22;5889;51.350;6.708;2024-02-16T00:51:38;13.30;99.90
11666;DHT22;5889;51.350;6.708;2024-02-16T00:54:05;13.30;99.90
11666;DHT22;5889;51.350;6.708;2024-02-16T00:56:33;13.30;99.90
11666;DHT22;5889;51.350;6.708;2024-02-16T00:58:59;13.30;99.90
11666;DHT22;5889;51.350;6.708;2024-02-16T01:01:27;13.30;99.90
11666;DHT22;5889;51.350;6.708;2024-02-16T01:03:54;13.30;99.90
11666;DHT22;5889;51.350;6.708;2024-02-16T01:06:21;13.30;99.90
11666;DHT22;5889;51.350;6.708;2024-02-16T01:08:49;13.30;99.90
11666;DHT22;5889;51.350;6.708;2024-02-16T01:11:16;13.30;99.90
11666;DHT22;5889;51.350;6.708;2024-02-16T01:13:45;13.30;99.90
11666;DHT22;5889;51.350;6.708;2024-02-16T01:16:12;13.30;99.90
11666;DHT22;5889;51.350;6.708;2024-02-16T01:18:40;13.40;99.90
11666;DHT22;5889;51.350;6.708;2024-02-16T01:21:06;13.40;99.90
11666;DHT22;5889;51.350;6.708;2024-02-16T01:23:34;13.40;99.90
11666;DHT22;5889;51.350;6.708;2024-02-16T01:26:03;13.40;99.90
11666;DHT22;5889;51.350;6.708;2024-02-16T01:28:30;13.40;99.90
11666;DHT22;5889;51.350;6.708;2024-02-16T01:30:57;13.40;99.90
11666;DHT22;5889;51.350;6.708;2024-02-16T01:33:23;13.40;99.90
11666;DHT22;5889;51.350;6.708;2024-02-16T01:35:50;13.40;99.90
11666;DHT22;5889;51.350;6.708;2024-02-16T01:38:17;13.40;99.90
11666;DHT22;5889;51.350;6.708;2024-02-16T01:40:44;13.40;99.90
11666;DHT22;5889;51.350;6.708;2024-02-16T01:43:13;13.50;99.90
11666;DHT22;5889;51.350;6.708;2024-02-16T01:45:39;13.40;99.90
11666;DHT22;5889;51.350;6.708;2024-02-16T01:48:07;13.50;99.90
11666;DHT22;5889;51.350;6.708;2024-02-16T01:50:34;13.50;99.90
11666;DHT22;5889;51.350;6.708;2024-02-16T01:53:01;13.50;99.90
11666;DHT22;5889;51.350;6.708;2024-02-16T01:55:28;13.50;99.90
11666;DHT22;5889;51.350;6.708;2024-02-16T01:57:56;13.50;99.90
11666;DHT22;5889;51.350;6.708;2024-02-16T02:00:26;13.50;99.90
11666;DHT22;5889;51.350;6.708;2024-02-16T02:02:53;13.50;99.90
11666;DHT22;5889;51.350;6.708;2024-02-16T02:05:20;13.50;99.90
11666;DHT22;5889;51.350;6.708;2024-02-16T02:07:47;13.50;99.90
11666;DHT22;5889;51.350;6.708;2024-02-16T02:10:14;13.50;99.90
11666;DHT22;5889;51.350;6.708;2024-02-16T02:12:42;13.50;99.90
11666;DHT22;5889;51.350;6.708;2024-02-16T02:15:10;13.50;99.90
11666;DHT22;5889;51.350;6.708;2024-02-16T02:17:38;13.50;99.90
11666;DHT22;5889;51.350;6.708;2024-02-16T02:20:06;13.50;99.90
11666;DHT22;5889;51.350;6.708;2024-02-16T02:22:37;13.50;99.90
11666;DHT22;5889;51.350;6.708;2024-02-16T02:25:05;13.50;99.90
11666;DHT22;5889;51.350;6.708;2024-02-16T02:27:32;13.60;99.90
11666;DHT22;5889;51.350;6.708;2024-02-16T02:29:59;13.50;99.90
11666;DHT22;5889;51.350;6.708;2024-02-16T02:32:26;13.50;99.90
11666;DHT22;5889;51.350;6.708;2024-02-16T02:34:54;13.50;99.90
11666;DHT22;5889;51.350;6.708;2024-02-16T02:37:21;13.50;99.90
11666;DHT22;5889;51.350;6.708;2024-02-16T02:39:49;13.40;99.90
11666;DHT22;5889;51.350;6.708;2024-02-16T02:42:16;13.40;99.90
11666;DHT22;5889;51.350;6.708;2024-02-16T02:44:43;13.40;99.90
11666;DHT22;5889;51.350;6.708;2024-02-16T02:47:15;13.40;99.90
11666;DHT22;5889;51.350;6.708;2024-02-16T02:49:42;13.30;99.90
11666;DHT22;5889;51.350;6.708;2024-02-16T02:52:09;13.30;99.90
11666;DHT22;5889;51.350;6.708;2024-02-16T02:54:36;13.30;99.90
11666;DHT22;5889;51.350;6.708;2024-02-16T02:57:05;13.30;99.90
11666;DHT22;5889;51.350;6.708;2024-02-16T02:59:32;13.30;99.90
11666;DHT22;5889;51.350;6.708;2024-02-16T03:02:04;13.30;99.90
11666;DHT22;5889;51.350;6.708;2024-02-16T03:04:31;13.30;99.90
11666;DHT22;5889;51.350;6.708;2024-02-16T03:06:59;13.30;99.90
11666;DHT22;5889;51.350;6.708;2024-02-16T03:09:26;13.30;99.90
11666;DHT22;5889;51.350;6.708;2024-02-16T03:11:52;13.30;99.90
11666;DHT22;5889;51.350;6.708;2024-02-16T03:14:21;13.30;99.90
11666;DHT22;5889;51.350;6.708;2024-02-16T03:16:48;13.30;99.90
11666;DHT22;5889;51.350;6.708;2024-02-16T03:19:15;13.30;99.90
11666;DHT22;5889;51.350;6.708;2024-02-16T03:21:42;13.30;99.90
11666;DHT22;5889;51.350;6.708;2024-02-16T03:24:09;13.30;99.90
11666;DHT22;5889;51.350;6.708;2024-02-16T03:26:36;13.30;99.90
11666;DHT22;5889;51.350;6.708;2024-02-16T03:29:03;13.30;99.90
11666;DHT22;5889;51.350;6.708;2024-02-16T03:31:31;13.30;99.90
11666;DHT22;5889;51.350;6.708;2024-02-16T03:33:59;13.30;99.90
11666;DHT22;5889;51.350;6.708;2024-02-16T03:36:26;13.30;99.90
11666;DHT22;5889;51.350;6.708;2024-02-16T03:38:53;13.30;99.90
11666;DHT22;5889;51.350;6.708;2024-02-16T03:41:22;13.30;99.90
11666;DHT22;5889;51.350;6.708;2024-02-16T03:43:49;13.30;99.90
11666;DHT22;5889;51.350;6.708;2024-02-16T03:46:16;13.30;99.90
11666;DHT22;5889;51.350;6.708;2024-02-16T03:48:45;13.30;99.90
11666;DHT22;5889;51.350;6.708;2024-02-16T03:51:12;13.30;99.90
11666;DHT22;5889;51.350;6.708;2024-02-16T03:53:39;13.30;99.90
11666;DHT22;5889;51.350;6.708;2024-02-16T03:56:06;13.30;99.90
11666;DHT22;5889;51.350;6.708;2024-02-16T03:58:33;13.40;99.90
11666;DHT22;5889;51.350;6.708;2024-02-16T04:01:00;13.40;99.90
11666;DHT22;5889;51.350;6.708;2024-02-16T04:03:27;13.30;99.90
11666;DHT22;5889;51.350;6.708;2024-02-16T04:05:55;13.30;99.90
11666;DHT22;5889;51.350;6.708;2024-02-16T04:08:22;13.30;99.90
11666;DHT22;5889;51.350;6.708;2024-02-16T04:10:49;13.30;99.90
11666;DHT22;5889;51.350;6.708;2024-02-16T04:13:16;13.30;99.90
11666;DHT22;5889;51.350;6.708;2024-02-16T04:15:43;13.30;99.90
11666;DHT22;5889;51.350;6.708;2024-02-16T04:18:10;13.30;99.90
11666;DHT22;5889;51.350;6.708;2024-02-16T04:20:37;13.40;99.90
11666;DHT22;5889;51.350;6.708;2024-02-16T04:23:08;13.40;99.90
11666;DHT22;5889;51.350;6.708;2024-02-16T04:25:35;13.40;99.90
11666;DHT22;5889;51.350;6.708;2024-02-16T04:28:02;13.30;99.90
11666;DHT22;5889;51.350;6.708;2024-02-16T04:30:29;13.40;99.90
11666;DHT22;5889;51.350;6.708;2024-02-16T04:32:56;13.30;99.90
11666;DHT22;5889;51.350;6.708;2024-02-16T04:35:23;13.30;99.90
11666;DHT22;5889;51.350;6.708;2024-02-16T04:37:50;13.30;99.90
11666;DHT22;5889;51.350;6.708;2024-02-16T04:40:18;13.30;99.90
11666;DHT22;5889;51.350;6.708;2024-02-16T04:42:45;13.30;99.90
11666;DHT22;5889;51.350;6.708;2024-02-16T04:45:12;13.20;99.90
11666;DHT22;5889;51.350;6.708;2024-02-16T04:47:40;13.20;99.90
11666;DHT22;5889;51.350;6.708;2024-02-16T04:50:07;13.20;99.90
11666;DHT22;5889;51.350;6.708;2024-02-16T04:52:36;13.20;99.90
11666;DHT22;5889;51.350;6.708;2024-02-16T04:55:06;13.20;99.90
11666;DHT22;5889;51.350;6.708;2024-02-16T04:57:34;13.20;99.90
11666;DHT22;5889;51.350;6.708;2024-02-16T05:00:02;13.20;99.90
11666;DHT22;5889;51.350;6.708;2024-02-16T05:02:30;13.20;99.90
11666;DHT22;5889;51.350;6.708;2024-02-16T05:04:57;13.10;99.90
11666;DHT22;5889;51.350;6.708;2024-02-16T05:07:24;13.20;99.90
11666;DHT22;5889;51.350;6.708;2024-02-16T05:09:51;13.10;99.90
11666;DHT22;5889;51.350;6.708;2024-02-16T05:12:21;13.10;99.90
11666;DHT22;5889;51.350;6.708;2024-02-16T05:14:50;13.10;99.90
11666;DHT22;5889;51.350;6.708;2024-02-16T05:17:18;13.10;99.90
11666;DHT22;5889;51.350;6.708;2024-02-16T05:19:45;13.10;99.90
11666;DHT22;5889;51.350;6.708;2024-02-16T05:22:12;13.00;99.90
11666;DHT22;5889;51.350;6.708;2024-02-16T05:24:39;13.00;99.90
11666;DHT22;5889;51.350;6.708;2024-02-16T05:27:06;13.00;99.90
11666;DHT22;5889;51.350;6.708;2024-02-16T05:29:33;13.00;99.90
11666;DHT22;5889;51.350;6.708;2024-02-16T05:32:01;13.00;99.90
11666;DHT22;5889;51.350;6.708;2024-02-16T05:34:28;13.00;99.90
11666;DHT22;5889;51.350;6.708;2024-02-16T05:36:58;12.90;99.90
11666;DHT22;5889;51.350;6.708;2024-02-16T05:39:27;12.90;99.90
11666;DHT22;5889;51.350;6.708;2024-02-16T05:41:57;12.90;99.90
11666;DHT22;5889;51.350;6.708;2024-02-16T05:44:23;12.90;99.90
11666;DHT22;5889;51.350;6.708;2024-02-16T05:46:50;12.90;99.90
11666;DHT22;5889;51.350;6.708;2024-02-16T05:49:19;12.90;99.90
11666;DHT22;5889;51.350;6.708;2024-02-16T05:51:46;12.90;99.90
11666;DHT22;5889;51.350;6.708;2024-02-16T05:54:43;12.90;99.90
11666;DHT22;5889;51.350;6.708;2024-02-16T05:57:10;12.80;99.90
11666;DHT22;5889;51.350;6.708;2024-02-16T05:59:38;12.90;99.90
11666;DHT22;5889;51.350;6.708;2024-02-16T06:02:05;12.90;99.90
11666;DHT22;5889;51.350;6.708;2024-02-16T06:04:34;12.90;99.90
11666;DHT22;5889;51.350;6.708;2024-02-16T06:07:01;12.90;99.90
11666;DHT22;5889;51.350;6.708;2024-02-16T06:09:28;12.90;99.90
11666;DHT22;5889;51.350;6.708;2024-02-16T06:12:01;12.90;99.90
11666;DHT22;5889;51.350;6.708;2024-02-16T06:14:29;12.90;99.90
11666;DHT22;5889;51.350;6.708;2024-02-16T06:16:56;12.90;99.90
11666;DHT22;5889;51.350;6.708;2024-02-16T06:19:25;12.90;99.90
11666;DHT22;5889;51.350;6.708;2024-02-16T06:21:54;12.90;99.90
11666;DHT22;5889;51.350;6.708;2024-02-16T06:24:21;12.90;99.90
11666;DHT22;5889;51.350;6.708;2024-02-16T06:26:49;13.00;99.90
11666;DHT22;5889;51.350;6.708;2024-02-16T06:29:16;13.00;99.90
11666;DHT22;5889;51.350;6.708;2024-02-16T06:31:45;13.00;99.90
11666;DHT22;5889;51.350;6.708;2024-02-16T06:34:12;13.00;99.90
11666;DHT22;5889;51.350;6.708;2024-02-16T06:36:38;13.00;99.90
11666;DHT22;5889;51.350;6.708;2024-02-16T06:39:07;12.90;99.90
11666;DHT22;5889;51.350;6.708;2024-02-16T06:41:35;12.90;99.90
11666;DHT22;5889;51.350;6.708;2024-02-16T06:44:02;12.90;99.90
11666;DHT22;5889;51.350;6.708;2024-02-16T06:46:29;12.90;99.90
11666;DHT22;5889;51.350;6.708;2024-02-16T06:48:57;12.90;99.90
11666;DHT22;5889;51.350;6.708;2024-02-16T06:51:24;12.90;99.90
11666;DHT22;5889;51.350;6.708;2024-02-16T06:53:52;12.90;99.90
11666;DHT22;5889;51.350;6.708;2024-02-16T06:56:20;12.90;99.90
11666;DHT22;5889;51.350;6.708;2024-02-16T06:58:48;13.00;99.90
11666;DHT22;5889;51.350;6.708;2024-02-16T07:01:17;13.00;99.90
11666;DHT22;5889;51.350;6.708;2024-02-16T07:03:44;13.00;99.90
11666;DHT22;5889;51.350;6.708;2024-02-16T07:06:12;13.00;99.90
11666;DHT22;5889;51.350;6.708;2024-02-16T07:08:39;13.00;99.90
11666;DHT22;5889;51.350;6.708;2024-02-16T07:11:06;13.00;99.90
11666;DHT22;5889;51.350;6.708;2024-02-16T07:13:35;13.00;99.90
11666;DHT22;5889;51.350;6.708;2024-02-16T07:16:04;13.00;99.90
11666;DHT22;5889;51.350;6.708;2024-02-16T07:18:32;13.00;99.90
11666;DHT22;5889;51.350;6.708;2024-02-16T07:21:00;13.10;99.90
11666;DHT22;5889;51.350;6.708;2024-02-16T07:23:27;13.10;99.90
11666;DHT22;5889;51.350;6.708;2024-02-16T07:25:54;13.10;99.90
11666;DHT22;5889;51.350;6.708;2024-02-16T07:28:23;13.10;99.90
11666;DHT22;5889;51.350;6.708;2024-02-16T07:30:51;13.20;99.90
11666;DHT22;5889;51.350;6.708;2024-02-16T07:33:24;13.20;99.90
11666;DHT22;5889;51.350;6.708;2024-02-16T07:35:53;13.20;99.90
11666;DHT22;5889;51.350;6.708;2024-02-16T07:38:21;13.30;99.90
11666;DHT22;5889;51.350;6.708;2024-02-16T07:40:48;13.30;99.90
11666;DHT22;5889;51.350;6.708;2024-02-16T07:43:16;13.40;99.90
11666;DHT22;5889;51.350;6.708;2024-02-16T07:45:44;13.40;99.90
11666;DHT22;5889;51.350;6.708;2024-02-16T07:48:12;13.50;99.90
11666;DHT22;5889;51.350;6.708;2024-02-16T07:50:39;13.60;99.90
11666;DHT22;5889;51.350;6.708;2024-02-16T07:53:06;13.60;99.90
11666;DHT22;5889;51.350;6.708;2024-02-16T07:55:35;13.70;99.90
11666;DHT22;5889;51.350;6.708;2024-02-16T07:58:02;13.70;99.90
11666;DHT22;5889;51.350;6.708;2024-02-16T08:00:29;13.70;99.90
11666;DHT22;5889;51.350;6.708;2024-02-16T08:02:56;13.80;99.90
11666;DHT22;5889;51.350;6.708;2024-02-16T08:05:24;13.80;99.90
11666;DHT22;5889;51.350;6.708;2024-02-16T08:07:52;13.80;99.90
11666;DHT22;5889;51.350;6.708;2024-02-16T08:10:19;13.80;99.90
11666;DHT22;5889;51.350;6.708;2024-02-16T08:12:48;13.90;99.90
11666;DHT22;5889;51.350;6.708;2024-02-16T08:15:16;13.90;99.90
11666;DHT22;5889;51.350;6.708;2024-02-16T08:17:48;13.90;99.90
11666;DHT22;5889;51.350;6.708;2024-02-16T08:20:16;13.90;99.90
11666;DHT22;5889;51.350;6.708;2024-02-16T08:22:44;14.00;99.90
11666;DHT22;5889;51.350;6.708;2024-02-16T08:25:12;14.00;99.90
11666;DHT22;5889;51.350;6.708;2024-02-16T08:27:39;14.00;99.90
11666;DHT22;5889;51.350;6.708;2024-02-16T08:30:07;14.10;99.90
11666;DHT22;5889;51.350;6.708;2024-02-16T08:32:35;14.20;99.90
11666;DHT22;5889;51.350;6.708;2024-02-16T08:35:02;14.20;99.90
11666;DHT22;5889;51.350;6.708;2024-02-16T08:37:29;14.30;99.90
11666;DHT22;5889;51.350;6.708;2024-02-16T08:39:58;14.30;99.90
11666;DHT22;5889;51.350;6.708;2024-02-16T08:42:25;14.40;99.90
11666;DHT22;5889;51.350;6.708;2024-02-16T08:44:52;14.40;99.90
11666;DHT22;5889;51.350;6.708;2024-02-16T08:47:19;14.40;99.90
11666;DHT22;5889;51.350;6.708;2024-02-16T08:49:46;14.40;99.90
11666;DHT22;5889;51.350;6.708;2024-02-16T08:52:13;14.40;99.90
11666;DHT22;5889;51.350;6.708;2024-02-16T08:54:40;14.50;99.90
11666;DHT22;5889;51.350;6.708;2024-02-16T08:57:20;14.50;99.90
11666;DHT22;5889;51.350;6.708;2024-02-16T08:59:47;14.50;99.90
11666;DHT22;5889;51.350;6.708;2024-02-16T09:02:14;14.50;99.90
11666;DHT22;5889;51.350;6.708;2024-02-16T09:04:41;14.50;99.90
11666;DHT22;5889;51.350;6.708;2024-02-16T09:07:10;14.50;99.90
11666;DHT22;5889;51.350;6.708;2024-02-16T09:09:38;14.60;99.90
11666;DHT22;5889;51.350;6.708;2024-02-16T09:12:05;14.60;99.90
11666;DHT22;5889;51.350;6.708;2024-02-16T09:14:33;14.60;99.90
11666;DHT22;5889;51.350;6.708;2024-02-16T09:17:00;14.60;99.90
11666;DHT22;5889;51.350;6.708;2024-02-16T09:19:27;14.60;99.90
11666;DHT22;5889;51.350;6.708;2024-02-16T09:21:54;14.70;99.90
11666;DHT22;5889;51.350;6.708;2024-02-16T09:24:23;14.70;99.90
11666;DHT22;5889;51.350;6.708;2024-02-16T09:26:54;14.80;99.90
11666;DHT22;5889;51.350;6.708;2024-02-16T09:29:21;14.80;99.90
11666;DHT22;5889;51.350;6.708;2024-02-16T09:31:50;14.80;99.90
11666;DHT22;5889;51.350;6.708;2024-02-16T09:34:17;14.90;99.90
11666;DHT22;5889;51.350;6.708;2024-02-16T09:36:44;15.00;99.90
11666;DHT22;5889;51.350;6.708;2024-02-16T09:39:11;15.00;99.90
11666;DHT22;5889;51.350;6.708;2024-02-16T09:41:41;15.10;99.90
11666;DHT22;5889;51.350;6.708;2024-02-16T09:44:09;15.10;99.90
11666;DHT22;5889;51.350;6.708;2024-02-16T09:46:36;15.10;99.90
11666;DHT22;5889;51.350;6.708;2024-02-16T09:49:05;15.20;99.90
11666;DHT22;5889;51.350;6.708;2024-02-16T09:51:35;15.20;99.90
11666;DHT22;5889;51.350;6.708;2024-02-16T09:54:03;15.20;99.90
11666;DHT22;5889;51.350;6.708;2024-02-16T09:56:30;15.20;99.90
11666;DHT22;5889;51.350;6.708;2024-02-16T09:58:58;15.20;99.90
11666;DHT22;5889;51.350;6.708;2024-02-16T10:01:26;15.30;99.90
11666;DHT22;5889;51.350;6.708;2024-02-16T10:03:54;15.30;99.90
11666;DHT22;5889;51.350;6.708;2024-02-16T10:06:24;15.20;99.90
11666;DHT22;5889;51.350;6.708;2024-02-16T10:08:52;15.20;99.90
11666;DHT22;5889;51.350;6.708;2024-02-16T10:11:20;15.20;99.90
11666;DHT22;5889;51.350;6.708;2024-02-16T10:13:57;15.20;99.90
11666;DHT22;5889;51.350;6.708;2024-02-16T10:16:24;15.20;99.90
11666;DHT22;5889;51.350;6.708;2024-02-16T10:18:55;15.20;99.90
11666;DHT22;5889;51.350;6.708;2024-02-16T10:21:27;15.20;99.90
11666;DHT22;5889;51.350;6.708;2024-02-16T10:23:59;15.20;99.90
11666;DHT22;5889;51.350;6.708;2024-02-16T10:26:27;15.30;99.90
11666;DHT22;5889;51.350;6.708;2024-02-16T10:28:55;15.30;99.90
11666;DHT22;5889;51.350;6.708;2024-02-16T10:31:23;15.30;99.90
11666;DHT22;5889;51.350;6.708;2024-02-16T10:33:57;15.40;99.90
11666;DHT22;5889;51.350;6.708;2024-02-16T10:36:26;15.40;99.90
11666;DHT22;5889;51.350;6.708;2024-02-16T10:38:54;15.50;99.90
11666;DHT22;5889;51.350;6.708;2024-02-16T10:41:33;15.50;99.90
11666;DHT22;5889;51.350;6.708;2024-02-16T10:44:01;15.50;99.90
11666;DHT22;5889;51.350;6.708;2024-02-16T10:46:28;15.50;99.90
11666;DHT22;5889;51.350;6.708;2024-02-16T10:48:55;15.50;99.90
11666;DHT22;5889;51.350;6.708;2024-02-16T10:51:28;15.50;99.90
11666;DHT22;5889;51.350;6.708;2024-02-16T10:53:56;15.50;99.90
11666;DHT22;5889;51.350;6.708;2024-02-16T10:56:32;15.50;99.90
11666;DHT22;5889;51.350;6.708;2024-02-16T10:59:01;15.50;99.90
11666;DHT22;5889;51.350;6.708;2024-02-16T11:01:32;15.50;99.90
11666;DHT22;5889;51.350;6.708;2024-02-16T11:04:04;15.50;99.90
11666;DHT22;5889;51.350;6.708;2024-02-16T11:06:46;15.50;99.90
11666;DHT22;5889;51.350;6.708;2024-02-16T11:09:25;15.50;99.90
11666;DHT22;5889;51.350;6.708;2024-02-16T11:11:52;15.50;99.90
11666;DHT22;5889;51.350;6.708;2024-02-16T11:14:21;15.50;99.90
11666;DHT22;5889;51.350;6.708;2024-02-16T11:16:48;15.50;99.90
11666;DHT22;5889;51.350;6.708;2024-02-16T11:19:16;15.50;99.90
11666;DHT22;5889;51.350;6.708;2024-02-16T11:22:04;15.50;99.90
11666;DHT22;5889;51.350;6.708;2024-02-16T11:24:33;15.50;99.90
11666;DHT22;5889;51.350;6.708;2024-02-16T11:27:04;15.50;99.90
11666;DHT22;5889;51.350;6.708;2024-02-16T11:29:35;15.50;99.90
11666;DHT22;5889;51.350;6.708;2024-02-16T11:32:05;15.40;99.90
11666;DHT22;5889;51.350;6.708;2024-02-16T11:34:33;15.40;99.90
11666;DHT22;5889;51.350;6.708;2024-02-16T11:37:05;15.40;99.90
11666;DHT22;5889;51.350;6.708;2024-02-16T11:39:35;15.40;99.90
11666;DHT22;5889;51.350;6.708;2024-02-16T11:42:04;15.40;99.90
11666;DHT22;5889;51.350;6.708;2024-02-16T11:44:32;15.40;99.90
11666;DHT22;5889;51.350;6.708;2024-02-16T11:46:59;15.50;99.90
11666;DHT22;5889;51.350;6.708;2024-02-16T11:49:27;15.40;99.90
11666;DHT22;5889;51.350;6.708;2024-02-16T11:51:53;15.40;99.90
11666;DHT22;5889;51.350;6.708;2024-02-16T11:54:23;15.40;99.90
11666;DHT22;5889;51.350;6.708;2024-02-16T11:56:50;15.40;99.90
11666;DHT22;5889;51.350;6.708;2024-02-16T11:59:18;15.40;99.90
11666;DHT22;5889;51.350;6.708;2024-02-16T12:01:49;15.40;99.90
11666;DHT22;5889;51.350;6.708;2024-02-16T12:04:21;15.40;99.90
11666;DHT22;5889;51.350;6.708;2024-02-16T12:06:50;15.40;99.90
11666;DHT22;5889;51.350;6.708;2024-02-16T12:09:18;15.40;99.90
11666;DHT22;5889;51.350;6.708;2024-02-16T12:11:47;15.40;99.90
11666;DHT22;5889;51.350;6.708;2024-02-16T12:14:15;15.50;99.90
11666;DHT22;5889;51.350;6.708;2024-02-16T12:16:42;15.40;99.90
11666;DHT22;5889;51.350;6.708;2024-02-16T12:19:09;15.40;99.90
11666;DHT22;5889;51.350;6.708;2024-02-16T12:21:38;15.40;99.90
11666;DHT22;5889;51.350;6.708;2024-02-16T12:24:06;15.40;99.90
11666;DHT22;5889;51.350;6.708;2024-02-16T12:26:33;15.40;99.90
11666;DHT22;5889;51.350;6.708;2024-02-16T12:29:01;15.40;99.90
11666;DHT22;5889;51.350;6.708;2024-02-16T12:31:30;15.40;99.90
11666;DHT22;5889;51.350;6.708;2024-02-16T12:33:57;15.40;99.90
11666;DHT22;5889;51.350;6.708;2024-02-16T12:36:24;15.30;99.90
11666;DHT22;5889;51.350;6.708;2024-02-16T12:38:54;15.30;99.90
11666;DHT22;5889;51.350;6.708;2024-02-16T12:41:21;15.30;99.90
11666;DHT22;5889;51.350;6.708;2024-02-16T12:43:48;15.30;99.90
11666;DHT22;5889;51.350;6.708;2024-02-16T12:46:19;15.20;99.90
11666;DHT22;5889;51.350;6.708;2024-02-16T12:48:46;15.20;99.90
11666;DHT22;5889;51.350;6.708;2024-02-16T12:51:13;15.20;99.90
11666;DHT22;5889;51.350;6.708;2024-02-16T12:53:40;15.20;99.90
11666;DHT22;5889;51.350;6.708;2024-02-16T12:56:08;15.10;99.90
11666;DHT22;5889;51.350;6.708;2024-02-16T12:58:35;15.10;99.90
11666;DHT22;5889;51.350;6.708;2024-02-16T13:01:03;15.10;99.90
11666;DHT22;5889;51.350;6.708;2024-02-16T13:03:33;15.10;99.90
11666;DHT22;5889;51.350;6.708;2024-02-16T13:06:01;15.10;99.90
11666;DHT22;5889;51.350;6.708;2024-02-16T13:08:28;15.00;99.90
11666;DHT22;5889;51.350;6.708;2024-02-16T13:10:55;15.00;99.90
11666;DHT22;5889;51.350;6.708;2024-02-16T13:13:22;15.00;99.90
11666;DHT22;5889;51.350;6.708;2024-02-16T13:15:49;15.00;99.90
11666;DHT22;5889;51.350;6.708;2024-02-16T13:18:16;15.00;99.90
11666;DHT22;5889;51.350;6.708;2024-02-16T13:20:45;15.00;99.90
11666;DHT22;5889;51.350;6.708;2024-02-16T13:23:12;15.00;99.90
11666;DHT22;5889;51.350;6.708;2024-02-16T13:25:39;14.90;99.90
11666;DHT22;5889;51.350;6.708;2024-02-16T13:28:06;14.90;99.90
11666;DHT22;5889;51.350;6.708;2024-02-16T13:30:33;14.90;99.90
11666;DHT22;5889;51.350;6.708;2024-02-16T13:33:00;14.90;99.90
11666;DHT22;5889;51.350;6.708;2024-02-16T13:35:27;14.90;99.90
11666;DHT22;5889;51.350;6.708;2024-02-16T13:37:56;14.80;99.90
11666;DHT22;5889;51.350;6.708;2024-02-16T13:40:23;14.80;99.90
11666;DHT22;5889;51.350;6.708;2024-02-16T13:42:50;14.80;99.90
11666;DHT22;5889;51.350;6.708;2024-02-16T13:45:17;14.70;99.90
11666;DHT22;5889;51.350;6.708;2024-02-16T13:47:44;14.70;99.90
11666;DHT22;5889;51.350;6.708;2024-02-16T13:50:11;14.70;99.90
11666;DHT22;5889;51.350;6.708;2024-02-16T13:52:42;14.70;99.90
11666;DHT22;5889;51.350;6.708;2024-02-16T13:55:11;14.70;99.90
11666;DHT22;5889;51.350;6.708;2024-02-16T13:57:37;14.60;99.90
11666;DHT22;5889;51.350;6.708;2024-02-16T14:00:06;14.60;99.90
11666;DHT22;5889;51.350;6.708;2024-02-16T14:02:33;14.60;99.90
11666;DHT22;5889;51.350;6.708;2024-02-16T14:05:00;14.50;99.90
11666;DHT22;5889;51.350;6.708;2024-02-16T14:07:27;14.50;99.90
11666;DHT22;5889;51.350;6.708;2024-02-16T14:09:54;14.40;99.90
11666;DHT22;5889;51.350;6.708;2024-02-16T14:12:22;14.40;99.90
11666;DHT22;5889;51.350;6.708;2024-02-16T14:14:49;14.30;99.90
11666;DHT22;5889;51.350;6.708;2024-02-16T14:17:16;14.30;99.90
11666;DHT22;5889;51.350;6.708;2024-02-16T14:19:43;14.20;99.90
11666;DHT22;5889;51.350;6.708;2024-02-16T14:22:10;14.20;99.90
11666;DHT22;5889;51.350;6.708;2024-02-16T14:24:38;14.20;99.90
11666;DHT22;5889;51.350;6.708;2024-02-16T14:27:05;14.20;99.90
11666;DHT22;5889;51.350;6.708;2024-02-16T14:29:33;14.10;99.90
11666;DHT22;5889;51.350;6.708;2024-02-16T14:32:00;14.10;99.90
11666;DHT22;5889;51.350;6.708;2024-02-16T14:34:27;14.10;99.90
11666;DHT22;5889;51.350;6.708;2024-02-16T14:36:54;14.10;99.90
11666;DHT22;5889;51.350;6.708;2024-02-16T14:39:21;14.10;99.90
11666;DHT22;5889;51.350;6.708;2024-02-16T14:41:51;14.00;99.90
11666;DHT22;5889;51.350;6.708;2024-02-16T14:44:17;14.00;99.90
11666;DHT22;5889;51.350;6.708;2024-02-16T14:46:46;13.80;99.90
11666;DHT22;5889;51.350;6.708;2024-02-16T14:49:18;13.70;99.90
11666;DHT22;5889;51.350;6.708;2024-02-16T14:51:47;13.60;99.90
11666;DHT22;5889;51.350;6.708;2024-02-16T14:54:17;13.50;99.90
11666;DHT22;5889;51.350;6.708;2024-02-16T14:56:44;13.40;99.90
11666;DHT22;5889;51.350;6.708;2024-02-16T14:59:11;13.30;99.90
11666;DHT22;5889;51.350;6.708;2024-02-16T15:01:38;13.30;99.90
11666;DHT22;5889;51.350;6.708;2024-02-16T15:04:07;13.20;99.90
11666;DHT22;5889;51.350;6.708;2024-02-16T15:06:33;13.20;99.90
11666;DHT22;5889;51.350;6.708;2024-02-16T15:09:01;13.20;99.90
11666;DHT22;5889;51.350;6.708;2024-02-16T15:11:29;13.10;99.90
11666;DHT22;5889;51.350;6.708;2024-02-16T15:13:56;13.10;99.90
11666;DHT22;5889;51.350;6.708;2024-02-16T15:16:23;13.10;99.90
11666;DHT22;5889;51.350;6.708;2024-02-16T15:18:53;13.10;99.90
11666;DHT22;5889;51.350;6.708;2024-02-16T15:21:21;13.10;99.90
11666;DHT22;5889;51.350;6.708;2024-02-16T15:23:48;13.00;99.90
11666;DHT22;5889;51.350;6.708;2024-02-16T15:26:15;13.00;99.90
11666;DHT22;5889;51.350;6.708;2024-02-16T15:28:42;13.00;99.90
11666;DHT22;5889;51.350;6.708;2024-02-16T15:31:12;13.00;99.90
11666;DHT22;5889;51.350;6.708;2024-02-16T15:33:38;13.00;99.90
11666;DHT22;5889;51.350;6.708;2024-02-16T15:36:07;13.00;99.90
11666;DHT22;5889;51.350;6.708;2024-02-16T15:38:35;12.90;99.90
11666;DHT22;5889;51.350;6.708;2024-02-16T15:41:02;13.00;99.90
11666;DHT22;5889;51.350;6.708;2024-02-16T15:43:29;12.90;99.90
11666;DHT22;5889;51.350;6.708;2024-02-16T15:45:56;12.90;99.90
11666;DHT22;5889;51.350;6.708;2024-02-16T15:48:23;12.90;99.90